sensor_id;sensor_type;location;lat;lon;timestamp;temperature;humidity
7654;DHT22;3869;48.406;10.774;2023-01-16T00:01:57;1.50;99.90
7654;DHT22;3869;48.406;10.774;2023-01-16T00:04:27;1.50;99.90
7654;DHT22;3869;48.406;10.774;2023-01-16T00:06:55;1.60;99.90
7654;DHT22;3869;48.406;10.774;2023-01-16T00:09:23;1.50;99.90
7654;DHT22;3869;48.406;10.774;2023-01-16T00:11:51;1.50;99.90
7654;DHT22;3869;48.406;10.774;2023-01-16T00:14:19;1.50;99.90
7654;DHT22;3869;48.406;10.774;2023-01-16T00:16:48;1.60;99.90
7654;DHT22;3869;48.406;10.774;2023-01-16T00:19:16;1.60;99.90
7654;DHT22;3869;48.406;10.774;2023-01-16T00:21:44;1.60;99.90
7654;DHT22;3869;48.406;10.774;2023-01-16T00:24:14;1.60;99.90
7654;DHT22;3869;48.406;10.774;2023-01-16T00:26:42;1.60;99.90
7654;DHT22;3869;48.406;10.774;2023-01-16T00:29:10;1.60;99.90
7654;DHT22;3869;48.406;10.774;2023-01-16T00:31:38;1.60;99.90
7654;DHT22;3869;48.406;10.774;2023-01-16T00:34:07;1.60;99.90
7654;DHT22;3869;48.406;10.774;2023-01-16T00:36:35;1.50;99.90
7654;DHT22;3869;48.406;10.774;2023-01-16T00:39:05;1.60;99.90
7654;DHT22;3869;48.406;10.774;2023-01-16T00:41:33;1.60;99.90
7654;DHT22;3869;48.406;10.774;2023-01-16T00:44:01;1.60;99.90
7654;DHT22;3869;48.406;10.774;2023-01-16T00:46:29;1.60;99.90
7654;DHT22;3869;48.406;10.774;2023-01-16T00:48:57;1.60;99.90
7654;DHT22;3869;48.406;10.774;2023-01-16T00:51:26;1.60;99.90
7654;DHT22;3869;48.406;10.774;2023-01-16T00:53:54;1.60;99.90
7654;DHT22;3869;48.406;10.774;2023-01-16T00:56:22;1.60;99.90
7654;DHT22;3869;48.406;10.774;2023-01-16T00:58:50;1.60;99.90
7654;DHT22;3869;48.406;10.774;2023-01-16T01:01:18;1.60;99.90
7654;DHT22;3869;48.406;10.774;2023-01-16T01:03:46;1.60;99.90
7654;DHT22;3869;48.406;10.774;2023-01-16T01:06:14;1.60;99.90
7654;DHT22;3869;48.406;10.774;2023-01-16T01:08:43;1.60;99.90
7654;DHT22;3869;48.406;10.774;2023-01-16T01:11:13;1.60;99.90
7654;DHT22;3869;48.406;10.774;2023-01-16T01:13:42;1.60;99.90
7654;DHT22;3869;48.406;10.774;2023-01-16T01:16:11;1.60;99.90
7654;DHT22;3869;48.406;10.774;2023-01-16T01:18:39;1.50;99.90
7654;DHT22;3869;48.406;10.774;2023-01-16T01:21:07;1.60;99.90
7654;DHT22;3869;48.406;10.774;2023-01-16T01:23:35;1.50;99.90
7654;DHT22;3869;48.406;10.774;2023-01-16T01:26:09;1.60;99.90
7654;DHT22;3869;48.406;10.774;2023-01-16T01:28:37;1.50;99.90
7654;DHT22;3869;48.406;10.774;2023-01-16T01:31:07;1.50;99.90
7654;DHT22;3869;48.406;10.774;2023-01-16T01:33:35;1.60;99.90
7654;DHT22;3869;48.406;10.774;2023-01-16T01:36:04;1.50;99.90
7654;DHT22;3869;48.406;10.774;2023-01-16T01:38:33;1.60;99.90
7654;DHT22;3869;48.406;10.774;2023-01-16T01:41:01;1.50;99.90
7654;DHT22;3869;48.406;10.774;2023-01-16T01:43:45;1.60;99.90
7654;DHT22;3869;48.406;10.774;2023-01-16T01:46:19;1.60;99.90
7654;DHT22;3869;48.406;10.774;2023-01-16T01:48:50;1.60;99.90
7654;DHT22;3869;48.406;10.774;2023-01-16T01:51:22;1.60;99.90
7654;DHT22;3869;48.406;10.774;2023-01-16T01:53:55;1.60;99.90
7654;DHT22;3869;48.406;10.774;2023-01-16T01:56:26;1.60;99.90
7654;DHT22;3869;48.406;10.774;2023-01-16T01:59:00;1.60;99.90
7654;DHT22;3869;48.406;10.774;2023-01-16T02:01:29;1.50;99.90
7654;DHT22;3869;48.406;10.774;2023-01-16T02:04:00;1.60;99.90
7654;DHT22;3869;48.406;10.774;2023-01-16T02:06:30;1.60;99.90
7654;DHT22;3869;48.406;10.774;2023-01-16T02:09:00;1.60;99.90
7654;DHT22;3869;48.406;10.774;2023-01-16T02:11:32;1.60;99.90
7654;DHT22;3869;48.406;10.774;2023-01-16T02:14:05;1.60;99.90
7654;DHT22;3869;48.406;10.774;2023-01-16T02:16:33;1.60;99.90
7654;DHT22;3869;48.406;10.774;2023-01-16T02:19:27;1.70;99.90
7654;DHT22;3869;48.406;10.774;2023-01-16T02:25:34;1.70;99.90
7654;DHT22;3869;48.406;10.774;2023-01-16T02:28:40;1.70;99.90
7654;DHT22;3869;48.406;10.774;2023-01-16T02:31:31;1.70;99.90
7654;DHT22;3869;48.406;10.774;2023-01-16T02:34:14;1.70;99.90
7654;DHT22;3869;48.406;10.774;2023-01-16T02:36:48;1.60;99.90
7654;DHT22;3869;48.406;10.774;2023-01-16T02:39:23;1.60;99.90
7654;DHT22;3869;48.406;10.774;2023-01-16T02:42:00;1.70;99.90
7654;DHT22;3869;48.406;10.774;2023-01-16T02:44:35;1.60;99.90
7654;DHT22;3869;48.406;10.774;2023-01-16T02:47:13;1.70;99.90
7654;DHT22;3869;48.406;10.774;2023-01-16T02:49:47;1.70;99.90
7654;DHT22;3869;48.406;10.774;2023-01-16T02:52:22;1.70;99.90
7654;DHT22;3869;48.406;10.774;2023-01-16T02:54:56;1.70;99.90
7654;DHT22;3869;48.406;10.774;2023-01-16T02:57:29;1.70;99.90
7654;DHT22;3869;48.406;10.774;2023-01-16T02:59:59;1.70;99.90
7654;DHT22;3869;48.406;10.774;2023-01-16T03:02:28;1.60;99.90
7654;DHT22;3869;48.406;10.774;2023-01-16T03:04:56;1.60;99.90
7654;DHT22;3869;48.406;10.774;2023-01-16T03:07:42;1.70;99.90
7654;DHT22;3869;48.406;10.774;2023-01-16T03:10:21;1.70;99.90
7654;DHT22;3869;48.406;10.774;2023-01-16T03:13:00;1.70;99.90
7654;DHT22;3869;48.406;10.774;2023-01-16T03:15:38;1.70;99.90
7654;DHT22;3869;48.406;10.774;2023-01-16T03:18:23;1.70;99.90
7654;DHT22;3869;48.406;10.774;2023-01-16T03:21:04;1.70;99.90
7654;DHT22;3869;48.406;10.774;2023-01-16T03:23:43;1.70;99.90
7654;DHT22;3869;48.406;10.774;2023-01-16T03:26:20;1.70;99.90
7654;DHT22;3869;48.406;10.774;2023-01-16T03:28:57;1.70;99.90
7654;DHT22;3869;48.406;10.774;2023-01-16T03:31:32;1.70;99.90
7654;DHT22;3869;48.406;10.774;2023-01-16T03:34:10;1.70;99.90
7654;DHT22;3869;48.406;10.774;2023-01-16T03:36:45;1.80;99.90
7654;DHT22;3869;48.406;10.774;2023-01-16T03:39:17;1.70;99.90
7654;DHT22;3869;48.406;10.774;2023-01-16T03:41:47;1.60;99.90
7654;DHT22;3869;48.406;10.774;2023-01-16T03:44:26;1.60;99.90
7654;DHT22;3869;48.406;10.774;2023-01-16T03:46:58;1.60;99.90
7654;DHT22;3869;48.406;10.774;2023-01-16T03:49:32;1.70;99.90
7654;DHT22;3869;48.406;10.774;2023-01-16T03:52:04;1.70;99.90
7654;DHT22;3869;48.406;10.774;2023-01-16T03:54:36;1.70;99.90
7654;DHT22;3869;48.406;10.774;2023-01-16T03:57:10;1.70;99.90
7654;DHT22;3869;48.406;10.774;2023-01-16T03:59:42;1.70;99.90
7654;DHT22;3869;48.406;10.774;2023-01-16T04:02:13;1.70;99.90
7654;DHT22;3869;48.406;10.774;2023-01-16T04:04:51;1.80;99.90
7654;DHT22;3869;48.406;10.774;2023-01-16T04:07:24;1.70;99.90
7654;DHT22;3869;48.406;10.774;2023-01-16T04:09:58;1.70;99.90
7654;DHT22;3869;48.406;10.774;2023-01-16T04:12:29;1.70;99.90
7654;DHT22;3869;48.406;10.774;2023-01-16T04:15:00;1.60;99.90
7654;DHT22;3869;48.406;10.774;2023-01-16T04:17:33;1.60;99.90
7654;DHT22;3869;48.406;10.774;2023-01-16T04:20:05;1.60;99.90
7654;DHT22;3869;48.406;10.774;2023-01-16T04:22:33;1.60;99.90
7654;DHT22;3869;48.406;10.774;2023-01-16T04:25:03;1.60;99.90
7654;DHT22;3869;48.406;10.774;2023-01-16T04:27:33;1.60;99.90
7654;DHT22;3869;48.406;10.774;2023-01-16T04:30:04;1.50;99.90
7654;DHT22;3869;48.406;10.774;2023-01-16T04:32:32;1.60;99.90
7654;DHT22;3869;48.406;10.774;2023-01-16T04:35:00;1.50;99.90
7654;DHT22;3869;48.406;10.774;2023-01-16T04:37:30;1.50;99.90
7654;DHT22;3869;48.406;10.774;2023-01-16T04:39:58;1.40;99.90
7654;DHT22;3869;48.406;10.774;2023-01-16T04:42:26;1.40;99.90
7654;DHT22;3869;48.406;10.774;2023-01-16T04:44:54;1.40;99.90
7654;DHT22;3869;48.406;10.774;2023-01-16T04:47:22;1.40;99.90
7654;DHT22;3869;48.406;10.774;2023-01-16T04:49:50;1.30;99.90
7654;DHT22;3869;48.406;10.774;2023-01-16T04:52:18;1.30;99.90
7654;DHT22;3869;48.406;10.774;2023-01-16T04:54:47;1.30;99.90
7654;DHT22;3869;48.406;10.774;2023-01-16T04:57:15;1.30;99.90
7654;DHT22;3869;48.406;10.774;2023-01-16T04:59:43;1.30;99.90
7654;DHT22;3869;48.406;10.774;2023-01-16T05:02:11;1.20;99.90
7654;DHT22;3869;48.406;10.774;2023-01-16T05:04:39;1.20;99.90
7654;DHT22;3869;48.406;10.774;2023-01-16T05:07:07;1.20;99.90
7654;DHT22;3869;48.406;10.774;2023-01-16T05:09:35;1.20;99.90
7654;DHT22;3869;48.406;10.774;2023-01-16T05:12:05;1.30;99.90
7654;DHT22;3869;48.406;10.774;2023-01-16T05:14:33;1.30;99.90
7654;DHT22;3869;48.406;10.774;2023-01-16T05:17:01;1.30;99.90
7654;DHT22;3869;48.406;10.774;2023-01-16T05:19:29;1.20;99.90
7654;DHT22;3869;48.406;10.774;2023-01-16T05:21:57;1.20;99.90
7654;DHT22;3869;48.406;10.774;2023-01-16T05:24:25;1.30;99.90
7654;DHT22;3869;48.406;10.774;2023-01-16T05:26:53;1.30;99.90
7654;DHT22;3869;48.406;10.774;2023-01-16T05:29:22;1.20;99.90
7654;DHT22;3869;48.406;10.774;2023-01-16T05:31:50;1.20;99.90
7654;DHT22;3869;48.406;10.774;2023-01-16T05:34:18;1.20;99.90
7654;DHT22;3869;48.406;10.774;2023-01-16T05:36:46;1.20;99.90
7654;DHT22;3869;48.406;10.774;2023-01-16T05:39:13;1.20;99.90
7654;DHT22;3869;48.406;10.774;2023-01-16T05:41:41;1.20;99.90
7654;DHT22;3869;48.406;10.774;2023-01-16T05:44:09;1.20;99.90
7654;DHT22;3869;48.406;10.774;2023-01-16T05:46:39;1.20;99.90
7654;DHT22;3869;48.406;10.774;2023-01-16T05:49:07;1.10;99.90
7654;DHT22;3869;48.406;10.774;2023-01-16T05:51:35;1.20;99.90
7654;DHT22;3869;48.406;10.774;2023-01-16T05:54:03;1.20;99.90
7654;DHT22;3869;48.406;10.774;2023-01-16T05:56:31;1.20;99.90
7654;DHT22;3869;48.406;10.774;2023-01-16T05:58:58;1.20;99.90
7654;DHT22;3869;48.406;10.774;2023-01-16T06:01:26;1.20;99.90
7654;DHT22;3869;48.406;10.774;2023-01-16T06:03:56;1.20;99.90
7654;DHT22;3869;48.406;10.774;2023-01-16T06:06:24;1.30;99.90
7654;DHT22;3869;48.406;10.774;2023-01-16T06:08:52;1.30;99.90
7654;DHT22;3869;48.406;10.774;2023-01-16T06:11:19;1.30;99.90
7654;DHT22;3869;48.406;10.774;2023-01-16T06:13:47;1.30;99.90
7654;DHT22;3869;48.406;10.774;2023-01-16T06:16:15;1.30;99.90
7654;DHT22;3869;48.406;10.774;2023-01-16T06:18:43;1.30;99.90
7654;DHT22;3869;48.406;10.774;2023-01-16T06:21:12;1.30;99.90
7654;DHT22;3869;48.406;10.774;2023-01-16T06:23:40;1.30;99.90
7654;DHT22;3869;48.406;10.774;2023-01-16T06:26:08;1.30;99.90
7654;DHT22;3869;48.406;10.774;2023-01-16T06:28:37;1.30;99.90
7654;DHT22;3869;48.406;10.774;2023-01-16T06:31:05;1.30;99.90
7654;DHT22;3869;48.406;10.774;2023-01-16T06:33:34;1.30;99.90
7654;DHT22;3869;48.406;10.774;2023-01-16T06:36:02;1.20;99.90
7654;DHT22;3869;48.406;10.774;2023-01-16T06:38:32;1.20;99.90
7654;DHT22;3869;48.406;10.774;2023-01-16T06:41:00;1.20;99.90
7654;DHT22;3869;48.406;10.774;2023-01-16T06:43:28;1.20;99.90
7654;DHT22;3869;48.406;10.774;2023-01-16T06:45:56;1.10;99.90
7654;DHT22;3869;48.406;10.774;2023-01-16T06:48:24;1.10;99.90
7654;DHT22;3869;48.406;10.774;2023-01-16T06:50:53;1.10;99.90
7654;DHT22;3869;48.406;10.774;2023-01-16T06:53:21;1.00;99.90
7654;DHT22;3869;48.406;10.774;2023-01-16T06:55:50;1.00;99.90
7654;DHT22;3869;48.406;10.774;2023-01-16T06:58:18;1.00;99.90
7654;DHT22;3869;48.406;10.774;2023-01-16T07:00:47;0.90;99.90
7654;DHT22;3869;48.406;10.774;2023-01-16T07:03:18;0.90;99.90
7654;DHT22;3869;48.406;10.774;2023-01-16T07:05:47;0.90;99.90
7654;DHT22;3869;48.406;10.774;2023-01-16T07:08:16;0.90;99.90
7654;DHT22;3869;48.406;10.774;2023-01-16T07:10:44;0.90;99.90
7654;DHT22;3869;48.406;10.774;2023-01-16T07:13:13;0.90;99.90
7654;DHT22;3869;48.406;10.774;2023-01-16T07:15:45;0.90;99.90
7654;DHT22;3869;48.406;10.774;2023-01-16T07:18:31;0.90;99.90
7654;DHT22;3869;48.406;10.774;2023-01-16T07:21:32;0.90;99.90
7654;DHT22;3869;48.406;10.774;2023-01-16T07:24:19;0.90;99.90
7654;DHT22;3869;48.406;10.774;2023-01-16T07:26:52;0.90;99.90
7654;DHT22;3869;48.406;10.774;2023-01-16T07:29:26;0.90;99.90
7654;DHT22;3869;48.406;10.774;2023-01-16T07:31:54;0.90;99.90
7654;DHT22;3869;48.406;10.774;2023-01-16T07:34:23;0.90;99.90
7654;DHT22;3869;48.406;10.774;2023-01-16T07:36:51;0.90;99.90
7654;DHT22;3869;48.406;10.774;2023-01-16T07:39:19;0.90;99.90
7654;DHT22;3869;48.406;10.774;2023-01-16T07:41:46;1.00;99.90
7654;DHT22;3869;48.406;10.774;2023-01-16T07:44:25;1.00;99.90
7654;DHT22;3869;48.406;10.774;2023-01-16T07:46:53;1.00;99.90
7654;DHT22;3869;48.406;10.774;2023-01-16T07:49:21;1.00;99.90
7654;DHT22;3869;48.406;10.774;2023-01-16T07:51:49;1.00;99.90
7654;DHT22;3869;48.406;10.774;2023-01-16T07:54:17;1.00;99.90
7654;DHT22;3869;48.406;10.774;2023-01-16T07:56:45;1.00;99.90
7654;DHT22;3869;48.406;10.774;2023-01-16T07:59:13;1.00;99.90
7654;DHT22;3869;48.406;10.774;2023-01-16T08:01:42;1.00;99.90
7654;DHT22;3869;48.406;10.774;2023-01-16T08:04:12;1.00;99.90
7654;DHT22;3869;48.406;10.774;2023-01-16T08:06:40;1.10;99.90
7654;DHT22;3869;48.406;10.774;2023-01-16T08:09:11;1.10;99.90
7654;DHT22;3869;48.406;10.774;2023-01-16T08:11:39;1.10;99.90
7654;DHT22;3869;48.406;10.774;2023-01-16T08:14:13;1.20;99.90
7654;DHT22;3869;48.406;10.774;2023-01-16T08:16:43;1.30;99.90
7654;DHT22;3869;48.406;10.774;2023-01-16T08:19:11;1.30;99.90
7654;DHT22;3869;48.406;10.774;2023-01-16T08:21:39;1.40;99.90
7654;DHT22;3869;48.406;10.774;2023-01-16T08:24:07;1.40;99.90
7654;DHT22;3869;48.406;10.774;2023-01-16T08:26:36;1.40;99.90
7654;DHT22;3869;48.406;10.774;2023-01-16T08:29:04;1.40;99.90
7654;DHT22;3869;48.406;10.774;2023-01-16T08:31:32;1.40;99.90
7654;DHT22;3869;48.406;10.774;2023-01-16T08:34:01;1.50;99.90
7654;DHT22;3869;48.406;10.774;2023-01-16T08:36:30;1.50;99.90
7654;DHT22;3869;48.406;10.774;2023-01-16T08:38:57;1.50;99.90
7654;DHT22;3869;48.406;10.774;2023-01-16T08:41:26;1.60;99.90
7654;DHT22;3869;48.406;10.774;2023-01-16T08:44:11;1.60;99.90
7654;DHT22;3869;48.406;10.774;2023-01-16T08:47:00;1.70;99.90
7654;DHT22;3869;48.406;10.774;2023-01-16T08:49:48;1.70;99.90
7654;DHT22;3869;48.406;10.774;2023-01-16T08:52:34;1.70;99.90
7654;DHT22;3869;48.406;10.774;2023-01-16T08:55:04;1.80;99.90
7654;DHT22;3869;48.406;10.774;2023-01-16T08:57:32;1.90;99.90
7654;DHT22;3869;48.406;10.774;2023-01-16T09:00:02;2.00;99.90
7654;DHT22;3869;48.406;10.774;2023-01-16T09:02:30;2.00;99.90
7654;DHT22;3869;48.406;10.774;2023-01-16T09:05:02;2.10;99.90
7654;DHT22;3869;48.406;10.774;2023-01-16T09:07:30;2.10;99.90
7654;DHT22;3869;48.406;10.774;2023-01-16T09:09:58;2.10;99.90
7654;DHT22;3869;48.406;10.774;2023-01-16T09:12:26;2.10;99.90
7654;DHT22;3869;48.406;10.774;2023-01-16T09:15:11;2.10;99.90
7654;DHT22;3869;48.406;10.774;2023-01-16T09:17:39;2.20;99.90
7654;DHT22;3869;48.406;10.774;2023-01-16T09:20:10;2.20;99.90
7654;DHT22;3869;48.406;10.774;2023-01-16T09:22:38;2.30;99.90
7654;DHT22;3869;48.406;10.774;2023-01-16T09:25:07;2.40;99.90
7654;DHT22;3869;48.406;10.774;2023-01-16T09:27:35;2.50;99.90
7654;DHT22;3869;48.406;10.774;2023-01-16T09:30:03;2.60;99.90
7654;DHT22;3869;48.406;10.774;2023-01-16T09:32:31;2.70;99.90
7654;DHT22;3869;48.406;10.774;2023-01-16T09:35:00;2.80;99.90
7654;DHT22;3869;48.406;10.774;2023-01-16T09:37:29;2.90;99.90
7654;DHT22;3869;48.406;10.774;2023-01-16T09:39:57;3.10;99.90
7654;DHT22;3869;48.406;10.774;2023-01-16T09:42:49;3.20;99.90
7654;DHT22;3869;48.406;10.774;2023-01-16T09:45:36;3.30;99.90
7654;DHT22;3869;48.406;10.774;2023-01-16T09:48:10;3.40;99.90
7654;DHT22;3869;48.406;10.774;2023-01-16T09:50:42;3.50;99.90
7654;DHT22;3869;48.406;10.774;2023-01-16T09:53:18;3.50;99.90
7654;DHT22;3869;48.406;10.774;2023-01-16T09:56:04;3.60;99.90
7654;DHT22;3869;48.406;10.774;2023-01-16T09:58:57;3.70;99.90
7654;DHT22;3869;48.406;10.774;2023-01-16T10:01:31;3.80;99.90
7654;DHT22;3869;48.406;10.774;2023-01-16T10:04:11;3.90;99.90
7654;DHT22;3869;48.406;10.774;2023-01-16T10:06:50;4.00;99.90
7654;DHT22;3869;48.406;10.774;2023-01-16T10:09:29;4.00;99.90
7654;DHT22;3869;48.406;10.774;2023-01-16T10:12:03;4.10;99.90
7654;DHT22;3869;48.406;10.774;2023-01-16T10:14:48;4.10;99.90
7654;DHT22;3869;48.406;10.774;2023-01-16T10:17:24;4.20;99.90
7654;DHT22;3869;48.406;10.774;2023-01-16T10:20:26;4.20;99.90
7654;DHT22;3869;48.406;10.774;2023-01-16T10:23:06;4.30;99.90
7654;DHT22;3869;48.406;10.774;2023-01-16T10:25:42;4.30;99.90
7654;DHT22;3869;48.406;10.774;2023-01-16T10:28:24;4.30;99.90
7654;DHT22;3869;48.406;10.774;2023-01-16T10:30:55;4.30;99.90
7654;DHT22;3869;48.406;10.774;2023-01-16T10:33:30;4.40;99.90
7654;DHT22;3869;48.406;10.774;2023-01-16T10:36:12;4.50;99.90
7654;DHT22;3869;48.406;10.774;2023-01-16T10:38:44;4.50;99.90
7654;DHT22;3869;48.406;10.774;2023-01-16T10:41:17;4.40;99.90
7654;DHT22;3869;48.406;10.774;2023-01-16T10:44:15;4.30;99.90
7654;DHT22;3869;48.406;10.774;2023-01-16T10:47:03;4.30;99.90
7654;DHT22;3869;48.406;10.774;2023-01-16T10:49:53;4.40;99.90
7654;DHT22;3869;48.406;10.774;2023-01-16T10:52:21;4.30;99.90
7654;DHT22;3869;48.406;10.774;2023-01-16T10:54:51;4.40;99.90
7654;DHT22;3869;48.406;10.774;2023-01-16T10:57:21;4.50;99.90
7654;DHT22;3869;48.406;10.774;2023-01-16T10:59:51;4.60;99.90
7654;DHT22;3869;48.406;10.774;2023-01-16T11:02:27;4.70;99.90
7654;DHT22;3869;48.406;10.774;2023-01-16T11:04:56;4.80;99.90
7654;DHT22;3869;48.406;10.774;2023-01-16T11:07:27;4.80;99.90
7654;DHT22;3869;48.406;10.774;2023-01-16T11:09:57;4.80;99.90
7654;DHT22;3869;48.406;10.774;2023-01-16T11:12:29;4.90;99.90
7654;DHT22;3869;48.406;10.774;2023-01-16T11:15:18;5.00;99.90
7654;DHT22;3869;48.406;10.774;2023-01-16T11:18:19;5.10;99.90
7654;DHT22;3869;48.406;10.774;2023-01-16T11:21:01;5.10;99.90
7654;DHT22;3869;48.406;10.774;2023-01-16T11:23:42;5.00;99.90
7654;DHT22;3869;48.406;10.774;2023-01-16T11:26:11;5.00;99.90
7654;DHT22;3869;48.406;10.774;2023-01-16T11:28:42;4.90;99.90
7654;DHT22;3869;48.406;10.774;2023-01-16T11:31:13;5.00;99.90
7654;DHT22;3869;48.406;10.774;2023-01-16T11:33:45;5.00;99.90
7654;DHT22;3869;48.406;10.774;2023-01-16T11:36:16;5.00;99.90
7654;DHT22;3869;48.406;10.774;2023-01-16T11:38:46;5.00;99.90
7654;DHT22;3869;48.406;10.774;2023-01-16T11:41:18;5.10;99.90
7654;DHT22;3869;48.406;10.774;2023-01-16T11:44:05;5.00;99.90
7654;DHT22;3869;48.406;10.774;2023-01-16T11:46:56;5.00;99.90
7654;DHT22;3869;48.406;10.774;2023-01-16T11:49:27;5.10;99.90
7654;DHT22;3869;48.406;10.774;2023-01-16T11:51:58;5.10;99.90
7654;DHT22;3869;48.406;10.774;2023-01-16T11:54:31;5.20;99.90
7654;DHT22;3869;48.406;10.774;2023-01-16T11:57:17;5.30;99.90
7654;DHT22;3869;48.406;10.774;2023-01-16T12:06:20;5.60;99.90
7654;DHT22;3869;48.406;10.774;2023-01-16T12:09:22;5.60;99.90
7654;DHT22;3869;48.406;10.774;2023-01-16T12:12:10;5.50;99.90
7654;DHT22;3869;48.406;10.774;2023-01-16T12:14:59;5.40;99.90
7654;DHT22;3869;48.406;10.774;2023-01-16T12:17:46;5.40;99.90
7654;DHT22;3869;48.406;10.774;2023-01-16T12:20:30;5.30;99.90
7654;DHT22;3869;48.406;10.774;2023-01-16T12:23:21;5.30;99.90
7654;DHT22;3869;48.406;10.774;2023-01-16T12:26:01;5.30;99.90
7654;DHT22;3869;48.406;10.774;2023-01-16T12:28:39;5.30;99.90
7654;DHT22;3869;48.406;10.774;2023-01-16T12:31:26;5.30;99.90
7654;DHT22;3869;48.406;10.774;2023-01-16T12:34:25;5.30;99.90
7654;DHT22;3869;48.406;10.774;2023-01-16T12:37:12;5.20;99.90
7654;DHT22;3869;48.406;10.774;2023-01-16T12:39:49;5.20;99.90
7654;DHT22;3869;48.406;10.774;2023-01-16T12:42:32;5.20;99.90
7654;DHT22;3869;48.406;10.774;2023-01-16T12:45:29;5.20;99.90
7654;DHT22;3869;48.406;10.774;2023-01-16T12:48:12;5.10;99.90
7654;DHT22;3869;48.406;10.774;2023-01-16T12:50:58;5.10;99.90
7654;DHT22;3869;48.406;10.774;2023-01-16T12:53:44;5.10;99.90
7654;DHT22;3869;48.406;10.774;2023-01-16T12:56:26;5.10;99.90
7654;DHT22;3869;48.406;10.774;2023-01-16T12:59:00;5.10;99.90
7654;DHT22;3869;48.406;10.774;2023-01-16T13:01:33;5.10;99.90
7654;DHT22;3869;48.406;10.774;2023-01-16T13:04:08;5.20;99.90
7654;DHT22;3869;48.406;10.774;2023-01-16T13:06:44;5.20;99.90
7654;DHT22;3869;48.406;10.774;2023-01-16T13:09:18;5.20;99.90
7654;DHT22;3869;48.406;10.774;2023-01-16T13:12:00;5.30;99.90
7654;DHT22;3869;48.406;10.774;2023-01-16T13:14:52;5.30;99.90
7654;DHT22;3869;48.406;10.774;2023-01-16T13:17:24;5.30;99.90
7654;DHT22;3869;48.406;10.774;2023-01-16T13:19:58;5.30;99.90
7654;DHT22;3869;48.406;10.774;2023-01-16T13:22:32;5.30;99.90
7654;DHT22;3869;48.406;10.774;2023-01-16T13:25:09;5.30;99.90
7654;DHT22;3869;48.406;10.774;2023-01-16T13:27:42;5.10;99.90
7654;DHT22;3869;48.406;10.774;2023-01-16T13:30:14;5.10;99.90
7654;DHT22;3869;48.406;10.774;2023-01-16T13:32:46;5.10;99.90
7654;DHT22;3869;48.406;10.774;2023-01-16T13:35:19;5.10;99.90
7654;DHT22;3869;48.406;10.774;2023-01-16T13:38:28;5.10;99.90
7654;DHT22;3869;48.406;10.774;2023-01-16T13:41:11;5.10;99.90
7654;DHT22;3869;48.406;10.774;2023-01-16T13:43:45;5.20;99.90
7654;DHT22;3869;48.406;10.774;2023-01-16T13:46:31;5.10;99.90
7654;DHT22;3869;48.406;10.774;2023-01-16T13:49:01;5.10;99.90
7654;DHT22;3869;48.406;10.774;2023-01-16T13:51:30;5.10;99.90
7654;DHT22;3869;48.406;10.774;2023-01-16T13:54:13;5.10;99.90
7654;DHT22;3869;48.406;10.774;2023-01-16T13:56:56;5.10;99.90
7654;DHT22;3869;48.406;10.774;2023-01-16T13:59:40;5.10;99.90
7654;DHT22;3869;48.406;10.774;2023-01-16T14:02:25;5.00;99.90
7654;DHT22;3869;48.406;10.774;2023-01-16T14:08:18;4.80;99.90
7654;DHT22;3869;48.406;10.774;2023-01-16T14:11:56;4.80;99.90
7654;DHT22;3869;48.406;10.774;2023-01-16T14:14:48;4.80;99.90
7654;DHT22;3869;48.406;10.774;2023-01-16T14:18:13;4.80;99.90
7654;DHT22;3869;48.406;10.774;2023-01-16T14:20:44;4.70;99.90
7654;DHT22;3869;48.406;10.774;2023-01-16T14:23:18;4.70;99.90
7654;DHT22;3869;48.406;10.774;2023-01-16T14:26:05;4.80;99.90
7654;DHT22;3869;48.406;10.774;2023-01-16T14:28:38;4.80;99.90
7654;DHT22;3869;48.406;10.774;2023-01-16T14:31:19;4.80;99.90
7654;DHT22;3869;48.406;10.774;2023-01-16T14:33:49;4.80;99.90
7654;DHT22;3869;48.406;10.774;2023-01-16T14:36:20;4.80;99.90
7654;DHT22;3869;48.406;10.774;2023-01-16T14:38:49;4.80;99.90
7654;DHT22;3869;48.406;10.774;2023-01-16T14:41:25;4.70;99.90
7654;DHT22;3869;48.406;10.774;2023-01-16T14:44:16;4.70;99.90
7654;DHT22;3869;48.406;10.774;2023-01-16T14:47:22;4.70;99.90
7654;DHT22;3869;48.406;10.774;2023-01-16T14:50:10;4.60;99.90
7654;DHT22;3869;48.406;10.774;2023-01-16T14:53:20;4.60;99.90
7654;DHT22;3869;48.406;10.774;2023-01-16T14:56:21;4.60;99.90
7654;DHT22;3869;48.406;10.774;2023-01-16T14:58:55;4.60;99.90
7654;DHT22;3869;48.406;10.774;2023-01-16T15:01:28;4.60;99.90
7654;DHT22;3869;48.406;10.774;2023-01-16T15:04:15;4.50;99.90
7654;DHT22;3869;48.406;10.774;2023-01-16T15:06:46;4.50;99.90
7654;DHT22;3869;48.406;10.774;2023-01-16T15:09:17;4.50;99.90
7654;DHT22;3869;48.406;10.774;2023-01-16T15:11:50;4.50;99.90
7654;DHT22;3869;48.406;10.774;2023-01-16T15:14:21;4.50;99.90
7654;DHT22;3869;48.406;10.774;2023-01-16T15:17:09;4.60;99.90
7654;DHT22;3869;48.406;10.774;2023-01-16T15:20:00;4.60;99.90
7654;DHT22;3869;48.406;10.774;2023-01-16T15:22:48;4.60;99.90
7654;DHT22;3869;48.406;10.774;2023-01-16T15:25:28;4.60;99.90
7654;DHT22;3869;48.406;10.774;2023-01-16T15:28:03;4.60;99.90
7654;DHT22;3869;48.406;10.774;2023-01-16T15:30:35;4.50;99.90
7654;DHT22;3869;48.406;10.774;2023-01-16T15:33:22;4.30;99.90
7654;DHT22;3869;48.406;10.774;2023-01-16T15:36:21;4.30;99.90
7654;DHT22;3869;48.406;10.774;2023-01-16T15:38:52;4.30;99.90
7654;DHT22;3869;48.406;10.774;2023-01-16T15:41:23;4.30;99.90
7654;DHT22;3869;48.406;10.774;2023-01-16T15:44:15;4.20;99.90
7654;DHT22;3869;48.406;10.774;2023-01-16T15:47:20;4.20;99.90
7654;DHT22;3869;48.406;10.774;2023-01-16T15:50:00;4.20;99.90
7654;DHT22;3869;48.406;10.774;2023-01-16T15:52:32;4.10;99.90
7654;DHT22;3869;48.406;10.774;2023-01-16T15:55:11;4.00;99.90
7654;DHT22;3869;48.406;10.774;2023-01-16T15:57:46;3.90;99.90
7654;DHT22;3869;48.406;10.774;2023-01-16T16:00:27;3.80;99.90
7654;DHT22;3869;48.406;10.774;2023-01-16T16:02:57;3.80;99.90
7654;DHT22;3869;48.406;10.774;2023-01-16T16:05:28;3.70;99.90
7654;DHT22;3869;48.406;10.774;2023-01-16T16:07:57;3.70;99.90
7654;DHT22;3869;48.406;10.774;2023-01-16T16:10:26;3.70;99.90
7654;DHT22;3869;48.406;10.774;2023-01-16T16:13:16;3.50;99.90
7654;DHT22;3869;48.406;10.774;2023-01-16T16:15:56;3.50;99.90
7654;DHT22;3869;48.406;10.774;2023-01-16T16:18:55;3.40;99.90
7654;DHT22;3869;48.406;10.774;2023-01-16T16:21:29;3.30;99.90
7654;DHT22;3869;48.406;10.774;2023-01-16T16:24:01;3.20;99.90
7654;DHT22;3869;48.406;10.774;2023-01-16T16:26:31;3.20;99.90
7654;DHT22;3869;48.406;10.774;2023-01-16T16:29:02;3.20;99.90
7654;DHT22;3869;48.406;10.774;2023-01-16T16:31:32;3.10;99.90
7654;DHT22;3869;48.406;10.774;2023-01-16T16:34:03;3.00;99.90
7654;DHT22;3869;48.406;10.774;2023-01-16T16:36:38;3.00;99.90
7654;DHT22;3869;48.406;10.774;2023-01-16T16:39:27;3.00;99.90
7654;DHT22;3869;48.406;10.774;2023-01-16T16:41:56;2.90;99.90
7654;DHT22;3869;48.406;10.774;2023-01-16T16:44:44;2.90;99.90
7654;DHT22;3869;48.406;10.774;2023-01-16T16:47:17;2.90;99.90
7654;DHT22;3869;48.406;10.774;2023-01-16T16:49:46;2.80;99.90
7654;DHT22;3869;48.406;10.774;2023-01-16T16:52:30;2.80;99.90
7654;DHT22;3869;48.406;10.774;2023-01-16T16:54:59;2.70;99.90
7654;DHT22;3869;48.406;10.774;2023-01-16T16:57:39;2.70;99.90
7654;DHT22;3869;48.406;10.774;2023-01-16T17:00:15;2.80;99.90
7654;DHT22;3869;48.406;10.774;2023-01-16T17:02:46;2.80;99.90
7654;DHT22;3869;48.406;10.774;2023-01-16T17:05:17;2.70;99.90